KBFF/BFF METAR and TAF weather

Enter ICAO airport designator
Station Type Date Time Source
KBFF METAR 2018/10/19 14:53 UTC NOAA

KBFF 191453Z AUTO 29013KT 10SM CLR 09/02 A3026 RMK AO2 SLP239 T00890022 53033


Station Type Date Time Source
KBFF Decoded METAR 2018/10/19 14:53 UTC NOAA

SCOTTSBLUFF HEILIG FIELD, NE, United States (KBFF) 41-52N 103-36W 1203M
Oct 19, 2018 - 10:53 AM EDT / 2018.10.19 1453 UTC
Wind: from the WNW (290 degrees) at 15 MPH (13 KT):0
Visibility: 10 mile(s):0
Sky conditions: clear
Temperature: 48.0 F (8.9 C)
Dew Point: 36.0 F (2.2 C)
Relative Humidity: 62%
Pressure (altimeter): 30.26 in. Hg (1024 hPa)
Pressure tendency: 0.10 inches (3.3 hPa) higher than three hours ago
ob: KBFF 191453Z AUTO 29013KT 10SM CLR 09/02 A3026 RMK AO2 SLP239 T00890022 53033
cycle: 15

Station Type Date Time Source
KBFF TAF 2018/10/19 12:22 UTC NOAA

TAF KBFF 191120Z 1912/2012 30008KT P6SM SKC
FM191700 32012G22KT P6SM SKC
FM200100 VRB03KT P6SM SKC


Example: see airport list